Time;durP1;ratioP1;P1;durP2;ratioP2;P2;SDS_P1;SDS_P2;PMS_P1;PMS_P2;Temp;Humidity;BMP_temperature;BMP_pressure;BME280_temperature;BME280_humidity;BME280_pressure;Samples;Min_cycle;Max_cycle;Signal;HPM_P1;HPM_P2
2021/11/08 00:02:02;;;;;;;408.38;363.58;;;11.50;69.40;;;10.72;100.00;101209.72;5009463;28;20511;-66
2021/11/08 00:04:32;;;;;;;415.25;370.33;;;11.50;69.30;;;11.01;100.00;101203.53;5009686;28;20417;-67
2021/11/08 00:07:01;;;;;;;427.75;382.48;;;11.80;68.60;;;11.21;100.00;101187.97;5009784;28;20471;-69
2021/11/08 00:09:30;;;;;;;437.92;392.27;;;12.00;67.90;;;11.30;100.00;101196.25;5009673;28;20432;-65
2021/11/08 00:11:58;;;;;;;429.88;384.73;;;12.10;67.30;;;11.25;100.00;101188.16;5009219;28;20438;-68
2021/11/08 00:14:28;;;;;;;444.70;399.30;;;12.00;67.20;;;11.21;100.00;101187.16;5009748;28;20875;-68
2021/11/08 00:17:04;;;;;;;439.08;393.77;;;12.00;67.10;;;11.26;100.00;101189.78;5009739;28;20429;-68
2021/11/08 00:22:18;;;;;;;454.10;408.40;;;12.10;67.20;;;11.30;100.00;101185.44;5009027;28;20429;-67
2021/11/08 00:24:48;;;;;;;448.80;403.30;;;12.10;67.20;;;11.38;100.00;101182.09;5009667;28;20409;-69
2021/11/08 00:27:17;;;;;;;451.13;405.63;;;12.20;67.30;;;11.38;100.00;101182.09;5010168;28;20412;-67
2021/11/08 00:29:47;;;;;;;457.25;411.58;;;12.20;67.40;;;11.42;100.00;101175.84;5009615;28;20416;-68
2021/11/08 00:32:16;;;;;;;469.90;424.10;;;12.30;67.60;;;11.49;100.00;101173.56;5009006;28;20405;-69
2021/11/08 00:34:44;;;;;;;469.75;423.75;;;12.30;67.40;;;11.51;100.00;101168.69;5009346;28;20448;-67
2021/11/08 00:37:13;;;;;;;470.70;424.90;;;12.30;67.40;;;11.52;100.00;101173.00;5009496;28;20569;-65
2021/11/08 00:39:41;;;;;;;466.23;420.52;;;12.40;67.50;;;11.51;100.00;101170.59;5009194;28;20527;-70
2021/11/08 00:42:10;;;;;;;456.42;410.83;;;12.40;67.60;;;11.46;100.00;101167.91;5008810;28;20420;-66
2021/11/08 00:44:38;;;;;;;456.38;410.77;;;12.30;67.80;;;11.30;100.00;101170.00;5009381;28;20470;-69
2021/11/08 00:47:08;;;;;;;445.67;400.25;;;12.10;68.50;;;11.13;100.00;101174.22;5009520;28;20447;-69
2021/11/08 00:49:38;;;;;;;429.03;383.87;;;11.90;69.00;;;10.83;100.00;101162.56;5009260;28;20460;-64
2021/11/08 00:52:09;;;;;;;416.30;371.42;;;11.70;69.00;;;10.56;100.00;101170.34;5008971;28;20428;-67
2021/11/08 00:54:38;;;;;;;401.02;355.85;;;11.40;69.20;;;10.30;100.00;101161.56;5009315;28;20420;-67
2021/11/08 00:57:09;;;;;;;401.75;351.35;;;11.20;69.70;;;10.15;100.00;101172.47;5009619;28;20514;-68
2021/11/08 00:59:37;;;;;;;400.07;345.17;;;11.00;70.30;;;10.05;100.00;101166.28;5008968;28;20424;-68
2021/11/08 01:02:08;;;;;;;399.85;341.75;;;10.90;71.50;;;10.08;100.00;101171.13;5008699;28;20471;-65
2021/11/08 01:04:37;;;;;;;396.92;332.20;;;10.90;71.30;;;10.07;100.00;101166.81;5010860;28;20423;-68
2021/11/08 01:07:07;;;;;;;392.40;321.98;;;10.90;71.00;;;10.07;100.00;101161.41;5012924;28;20486;-69
2021/11/08 01:09:46;;;;;;;395.40;321.08;;;10.90;71.50;;;10.05;100.00;101169.81;5012662;28;20488;-66
2021/11/08 01:12:15;;;;;;;392.83;319.25;;;10.90;71.80;;;10.10;100.00;101168.94;5012161;28;20482;-64
2021/11/08 01:14:44;;;;;;;391.45;314.45;;;10.90;72.20;;;10.06;100.00;101163.28;5013153;28;20412;-64
2021/11/08 01:17:14;;;;;;;394.05;317.00;;;10.90;72.00;;;10.11;100.00;101168.69;5013443;28;20791;-67
2021/11/08 01:19:42;;;;;;;391.98;315.90;;;10.90;72.00;;;10.11;100.00;101159.78;5012914;28;20451;-64
2021/11/08 01:22:16;;;;;;;391.83;310.87;;;10.90;72.20;;;9.95;100.00;101160.91;5012097;28;20910;-63
2021/11/08 01:24:52;;;;;;;393.70;315.63;;;10.80;72.20;;;9.89;100.00;101155.56;5012785;28;20510;-64
2021/11/08 01:27:21;;;;;;;391.63;314.50;;;10.70;72.80;;;9.85;100.00;101156.38;5012828;28;20503;-66
2021/11/08 01:29:49;;;;;;;392.63;311.40;;;10.60;72.90;;;9.93;100.00;101149.59;5012620;28;20413;-65
2021/11/08 01:32:19;;;;;;;391.45;313.83;;;10.70;72.80;;;10.04;100.00;101151.97;5010909;28;20965;-65
2021/11/08 01:34:47;;;;;;;392.48;317.65;;;10.80;72.40;;;10.09;100.00;101153.84;5006915;28;20429;-67
2021/11/08 01:37:20;;;;;;;392.98;319.65;;;10.90;72.00;;;9.98;100.00;101152.25;5007672;28;20435;-67
2021/11/08 01:39:48;;;;;;;392.98;314.00;;;10.80;72.70;;;9.88;100.00;101155.81;5007715;28;20424;-65
2021/11/08 01:42:17;;;;;;;389.42;306.30;;;10.70;72.20;;;9.78;100.00;101158.56;5010770;28;20494;-67
2021/11/08 01:44:45;;;;;;;392.63;311.73;;;10.60;73.00;;;9.66;100.00;101149.97;5010936;28;20416;-66
2021/11/08 01:47:13;;;;;;;389.88;306.17;;;10.50;72.80;;;9.63;100.00;101143.25;5011638;28;20424;-66
2021/11/08 01:49:43;;;;;;;390.08;303.40;;;10.40;73.00;;;9.43;100.00;101145.97;5012369;28;20823;-65
2021/11/08 01:52:13;;;;;;;388.95;294.67;;;10.30;73.20;;;9.13;100.00;101143.34;5012062;28;20424;-66
2021/11/08 01:54:41;;;;;;;385.88;282.13;;;10.00;73.10;;;8.89;100.00;101137.72;5012568;28;20680;-68
2021/11/08 01:57:10;;;;;;;387.80;278.25;;;9.70;75.40;;;8.75;100.00;101140.13;5012155;28;20429;-66
2021/11/08 01:59:38;;;;;;;383.27;268.00;;;9.60;76.10;;;8.60;100.00;101142.81;5012310;28;20483;-64
2021/11/08 02:02:07;;;;;;;383.63;272.63;;;9.40;76.40;;;8.49;100.00;101141.19;5011850;28;20871;-65
2021/11/08 02:04:35;;;;;;;383.95;263.95;;;9.30;76.10;;;8.34;100.00;101130.41;5012224;28;20756;-65
2021/11/08 02:07:05;;;;;;;380.20;251.03;;;9.20;76.40;;;8.23;100.00;101129.56;5012306;28;20416;-67
2021/11/08 02:09:33;;;;;;;378.60;243.10;;;9.10;77.20;;;8.13;100.00;101131.41;5011936;28;20887;-68
2021/11/08 02:12:02;;;;;;;377.60;241.85;;;9.00;77.20;;;8.02;100.00;101133.28;5011715;28;20425;-65
2021/11/08 02:14:30;;;;;;;376.98;235.23;;;8.80;77.80;;;7.90;100.00;101137.28;5011801;28;20879;-65
2021/11/08 02:16:59;;;;;;;376.13;233.13;;;8.70;78.50;;;7.83;100.00;101131.31;5011973;28;20433;-64
2021/11/08 02:19:27;;;;;;;374.52;225.48;;;8.60;78.60;;;7.82;100.00;101127.00;5012117;28;20901;-64
2021/11/08 02:22:00;;;;;;;375.02;226.63;;;8.60;79.60;;;7.95;100.00;101131.88;5012099;28;20986;-65
2021/11/08 02:24:29;;;;;;;373.53;225.60;;;8.70;80.60;;;8.19;100.00;101136.53;5012451;28;20501;-68
2021/11/08 02:26:57;;;;;;;377.60;243.27;;;9.00;80.40;;;8.41;100.00;101144.44;5011983;28;20447;-66
2021/11/08 02:29:25;;;;;;;375.58;241.77;;;9.20;80.00;;;8.63;100.00;101146.88;5011538;28;20906;-65
2021/11/08 02:31:56;;;;;;;380.38;258.33;;;9.40;79.30;;;8.76;100.00;101147.16;5011842;28;20878;-66
2021/11/08 02:34:25;;;;;;;381.33;263.25;;;9.60;78.60;;;8.94;100.00;101153.06;5011879;28;20515;-67
2021/11/08 02:36:53;;;;;;;381.25;270.75;;;9.70;77.80;;;9.06;100.00;101149.00;5011797;28;20479;-63
2021/11/08 02:39:27;;;;;;;380.15;263.05;;;9.90;77.80;;;9.15;100.00;101155.47;5011553;28;20421;-66
2021/11/08 02:41:55;;;;;;;384.40;274.45;;;10.00;76.30;;;9.25;100.00;101151.97;5011469;28;20421;-63
2021/11/08 02:44:23;;;;;;;384.03;282.67;;;10.10;76.20;;;9.24;100.00;101161.16;5011688;28;20420;-66
2021/11/08 02:46:54;;;;;;;386.50;287.98;;;10.10;75.90;;;9.19;100.00;101161.97;5011593;28;20451;-65
2021/11/08 02:49:26;;;;;;;383.10;279.40;;;10.00;74.80;;;9.10;100.00;101157.38;5011593;28;20423;-69
2021/11/08 02:52:00;;;;;;;384.13;282.83;;;9.90;76.00;;;8.90;100.00;101158.22;5011294;28;20421;-68
2021/11/08 02:54:33;;;;;;;382.83;271.83;;;9.70;76.40;;;8.82;100.00;101145.25;5011443;28;20479;-65
2021/11/08 02:57:01;;;;;;;382.42;266.40;;;9.60;77.60;;;8.77;100.00;101156.06;5011528;28;20439;-67
2021/11/08 02:59:31;;;;;;;382.02;266.67;;;9.60;77.60;;;8.84;100.00;101142.31;5011161;28;20419;-66
2021/11/08 03:02:00;;;;;;;380.02;266.08;;;9.60;77.70;;;8.97;100.00;101147.94;5010680;28;20408;-63
2021/11/08 03:04:31;;;;;;;384.00;273.17;;;9.80;77.80;;;9.06;100.00;101145.53;5011192;28;20883;-67
2021/11/08 03:06:59;;;;;;;383.23;279.98;;;9.90;77.80;;;9.20;100.00;101142.00;5011326;28;20470;-68
2021/11/08 03:09:34;;;;;;;387.27;287.98;;;10.00;76.20;;;9.38;100.00;101143.31;5010889;28;20815;-66
2021/11/08 03:12:09;;;;;;;389.83;301.20;;;10.20;75.70;;;9.53;100.00;101135.16;5010516;28;20427;-64
2021/11/08 03:14:42;;;;;;;392.83;311.65;;;10.30;75.10;;;9.64;100.00;101139.44;5011108;28;20570;-67
2021/11/08 03:17:11;;;;;;;394.20;314.52;;;10.40;74.20;;;9.70;100.00;101137.53;5010969;28;20507;-64
2021/11/08 03:19:42;;;;;;;394.30;323.27;;;10.50;74.00;;;9.71;100.00;101137.25;5007956;28;20436;-63
2021/11/08 03:22:16;;;;;;;396.63;327.25;;;10.50;73.60;;;9.64;100.00;101138.63;5010487;28;20416;-65
2021/11/08 03:24:51;;;;;;;398.47;333.30;;;10.50;74.40;;;9.50;100.00;101124.91;5010858;28;20412;-67
2021/11/08 03:27:27;;;;;;;395.77;323.63;;;10.30;73.90;;;9.38;100.00;101118.19;5010243;28;20412;-63
2021/11/08 03:29:55;;;;;;;395.20;322.42;;;10.20;74.40;;;9.34;100.00;101110.66;5010489;28;20415;-66
2021/11/08 03:32:25;;;;;;;395.77;324.97;;;10.20;75.10;;;9.46;100.00;101113.03;5010360;28;20905;-67
2021/11/08 03:34:57;;;;;;;394.73;320.20;;;10.30;75.30;;;9.56;100.00;101113.03;5010736;28;20950;-62
2021/11/08 03:37:27;;;;;;;394.15;322.13;;;10.30;75.40;;;9.74;100.00;101106.19;5010729;28;20435;-65
2021/11/08 03:39:56;;;;;;;394.90;324.17;;;10.50;75.40;;;9.83;100.00;101093.72;5010325;28;20420;-69
2021/11/08 03:42:25;;;;;;;396.35;322.15;;;10.60;75.00;;;9.89;100.00;101090.72;5010064;28;20416;-67
2021/11/08 03:44:53;;;;;;;392.55;321.60;;;10.70;74.70;;;9.89;100.00;101093.44;5010527;28;20412;-63
2021/11/08 03:47:21;;;;;;;395.43;324.90;;;10.70;74.50;;;9.93;100.00;101085.56;5010591;28;20417;-67
2021/11/08 03:49:49;;;;;;;397.63;335.90;;;10.70;74.40;;;10.01;100.00;101084.16;5010279;28;20498;-66
2021/11/08 03:52:17;;;;;;;398.05;335.17;;;10.80;74.40;;;10.06;100.00;101084.94;5010109;28;20851;-66
2021/11/08 03:54:46;;;;;;;396.17;331.55;;;10.80;74.10;;;10.11;100.00;101086.81;5010402;28;20420;-67
2021/11/08 03:57:16;;;;;;;400.60;347.33;;;10.90;74.00;;;10.14;100.00;101080.88;5010317;28;20885;-65
2021/11/08 03:59:44;;;;;;;397.60;343.02;;;10.90;73.90;;;10.20;100.00;101077.88;5010260;28;20412;-69
2021/11/08 04:02:12;;;;;;;398.00;346.88;;;11.00;73.80;;;10.29;100.00;101072.66;5009675;28;20421;-69
2021/11/08 04:04:41;;;;;;;397.17;345.42;;;11.00;73.50;;;10.30;100.00;101066.97;5010364;28;20496;-66
2021/11/08 04:07:09;;;;;;;398.83;351.30;;;11.10;73.20;;;10.32;100.00;101069.41;5010299;28;20436;-67
2021/11/08 04:09:38;;;;;;;400.80;352.52;;;11.10;72.90;;;10.30;100.00;101071.59;5009792;28;20883;-67
2021/11/08 04:12:09;;;;;;;398.92;348.30;;;11.10;72.70;;;10.19;100.00;101070.03;5009780;28;20439;-68
2021/11/08 04:14:41;;;;;;;397.42;341.42;;;11.00;72.70;;;10.13;100.00;101073.81;5010572;28;20475;-66
2021/11/08 04:17:10;;;;;;;398.25;339.60;;;11.00;72.90;;;10.12;100.00;101077.63;5010143;28;20519;-68
2021/11/08 04:19:38;;;;;;;398.13;342.52;;;11.00;73.20;;;10.13;100.00;101074.66;5009827;28;20416;-64
2021/11/08 04:22:07;;;;;;;396.40;335.88;;;11.00;73.10;;;10.13;100.00;101074.66;5009579;28;20775;-68
2021/11/08 04:24:36;;;;;;;397.20;336.70;;;11.00;72.90;;;10.05;100.00;101083.34;5010100;28;20909;-68
2021/11/08 04:27:05;;;;;;;396.15;333.92;;;10.90;72.80;;;9.97;100.00;101083.13;5010200;28;20409;-70
2021/11/08 04:29:33;;;;;;;395.75;325.52;;;10.80;73.00;;;9.92;100.00;101083.13;5009832;28;20451;-64
2021/11/08 04:32:03;;;;;;;395.35;325.08;;;10.80;73.20;;;9.84;100.00;101074.56;5009405;28;20883;-65
2021/11/08 04:34:41;;;;;;;390.30;311.63;;;10.70;73.30;;;9.83;100.00;101085.63;5010048;28;20417;-65
2021/11/08 04:37:32;;;;;;;393.55;315.50;;;10.60;73.30;;;9.79;100.00;101084.56;5010058;28;20464;-64
2021/11/08 04:40:10;;;;;;;388.52;302.35;;;10.60;73.60;;;9.75;100.00;101083.50;5013573;28;20416;-70
2021/11/08 04:42:49;;;;;;;389.13;305.80;;;10.60;73.80;;;9.70;100.00;101086.22;5013524;28;20424;-63
2021/11/08 04:50:47;;;;;;;385.13;286.88;;;10.40;74.10;;;9.36;100.00;101086.09;5013436;28;20423;-69
2021/11/08 04:53:25;;;;;;;384.20;285.10;;;10.30;74.30;;;9.24;100.00;101091.00;5013078;28;20834;-69
2021/11/08 05:20:56;;;;;;;387.88;285.70;;;10.10;74.90;;;9.06;100.00;101086.19;5013155;28;20436;-68
2021/11/08 05:21:40;;;;;;;382.07;262.67;;;9.50;78.20;;;8.68;100.00;101069.50;5010809;28;20525;-66
2021/11/08 05:24:27;;;;;;;379.38;258.20;;;9.50;78.70;;;8.65;100.00;101070.06;5012424;28;20949;-63
2021/11/08 05:30:01;;;;;;;380.70;263.27;;;9.50;78.90;;;8.80;100.00;101071.91;4979572;28;20413;-67
2021/11/08 05:32:33;;;;;;;380.80;261.73;;;9.60;78.60;;;8.92;100.00;101071.63;5012310;28;20416;-64
2021/11/08 05:35:01;;;;;;;380.20;260.40;;;9.70;77.80;;;8.96;100.00;101072.72;5012921;28;20420;-66
2021/11/08 05:37:32;;;;;;;382.50;270.07;;;9.80;77.80;;;8.99;100.00;101067.59;5012789;28;20969;-64
2021/11/08 05:40:06;;;;;;;381.38;264.75;;;9.80;77.70;;;9.00;100.00;101065.66;5012851;28;20508;-65
2021/11/08 05:42:35;;;;;;;385.00;274.95;;;9.80;77.70;;;9.04;100.00;101066.75;5012277;28;20439;-67
2021/11/08 05:45:05;;;;;;;385.80;276.75;;;9.90;77.80;;;9.19;100.00;101056.72;5012724;28;20420;-65
2021/11/08 05:47:33;;;;;;;392.00;293.73;;;10.00;76.00;;;9.38;100.00;101059.63;5012662;28;21174;-64
2021/11/08 05:50:02;;;;;;;391.17;291.15;;;10.20;75.20;;;9.50;100.00;101060.13;5011948;28;20439;-67
2021/11/08 05:52:32;;;;;;;393.53;301.67;;;10.30;74.30;;;9.63;100.00;101064.13;5011958;28;20515;-70
2021/11/08 05:55:00;;;;;;;392.38;305.30;;;10.40;73.90;;;9.67;100.00;101065.16;5012521;28;20424;-66
2021/11/08 05:57:53;;;;;;;394.20;315.20;;;10.50;73.50;;;9.96;100.00;101065.28;5012493;28;20980;-67
2021/11/08 06:50:10;;;;;;;391.42;300.40;;;10.50;72.80;;;9.72;100.00;101084.06;5011401;28;20403;-64
2021/11/08 06:52:39;;;;;;;394.65;314.48;;;10.60;72.60;;;9.64;100.00;101090.84;5010986;28;20420;-65
2021/11/08 06:55:09;;;;;;;393.35;311.52;;;10.50;72.60;;;9.55;100.00;101088.97;5011456;28;20856;-67
2021/11/08 06:57:45;;;;;;;395.03;309.57;;;10.40;72.80;;;9.39;100.00;101096.34;5011212;28;20428;-67
2021/11/08 07:00:15;;;;;;;392.60;298.95;;;10.30;72.80;;;9.20;100.00;101098.84;5011060;28;20417;-62
2021/11/08 07:02:43;;;;;;;389.25;293.95;;;10.10;73.30;;;9.06;100.00;101095.06;5009752;28;20425;-66
2021/11/08 07:05:12;;;;;;;388.33;282.00;;;10.00;73.90;;;9.02;100.00;101102.09;5011116;28;20440;-63
2021/11/08 07:07:40;;;;;;;386.42;279.63;;;9.90;75.60;;;9.04;100.00;101096.41;5011298;28;20416;-66
2021/11/08 07:10:09;;;;;;;387.98;281.70;;;9.90;75.70;;;9.01;100.00;101105.06;5010766;28;20428;-64
2021/11/08 07:12:39;;;;;;;389.40;287.08;;;9.80;75.70;;;8.96;100.00;101103.19;5010509;28;20474;-64
2021/11/08 07:15:10;;;;;;;388.20;280.10;;;9.80;75.70;;;8.93;100.00;101102.91;5010914;28;20471;-67
2021/11/08 07:17:38;;;;;;;384.67;275.33;;;9.80;75.90;;;8.98;100.00;101109.13;5011200;28;20432;-67
2021/11/08 07:20:08;;;;;;;388.73;282.67;;;9.80;75.80;;;8.94;100.00;101109.91;5010929;28;20412;-65
2021/11/08 07:22:37;;;;;;;382.58;271.90;;;9.80;75.70;;;8.90;100.00;101109.66;5010399;28;20836;-69
2021/11/08 07:25:06;;;;;;;387.52;280.25;;;9.70;76.00;;;9.05;100.00;101116.94;5010898;28;20412;-68
2021/11/08 07:27:34;;;;;;;385.50;279.27;;;9.90;76.30;;;9.42;100.00;101124.69;5010970;28;20508;-67
2021/11/08 07:30:05;;;;;;;390.15;295.73;;;10.30;74.20;;;9.74;100.00;101123.22;5010660;28;20432;-62
2021/11/08 07:32:33;;;;;;;390.33;300.65;;;10.60;73.20;;;10.09;100.00;101129.53;5010309;28;20424;-67
2021/11/08 07:35:02;;;;;;;392.50;316.87;;;10.90;72.00;;;10.25;100.00;101128.38;5010698;28;20573;-66
2021/11/08 07:37:30;;;;;;;398.00;333.65;;;11.10;71.10;;;10.31;100.00;101130.75;5010635;28;20443;-67
2021/11/08 07:39:59;;;;;;;397.13;332.00;;;11.20;70.70;;;10.38;100.00;101130.44;5010485;28;20875;-65
2021/11/08 07:42:27;;;;;;;397.40;342.17;;;11.30;70.80;;;10.65;100.00;101132.69;5010071;28;20822;-69
2021/11/08 07:44:55;;;;;;;399.75;350.65;;;11.50;70.50;;;10.78;100.00;101127.44;5010687;28;20420;-66
2021/11/08 07:47:24;;;;;;;403.13;358.45;;;11.70;70.20;;;11.01;100.00;101141.31;5010653;28;20416;-65
2021/11/08 07:49:52;;;;;;;415.15;370.17;;;11.90;69.70;;;11.24;100.00;101141.38;5010224;28;20428;-65
2021/11/08 07:52:20;;;;;;;428.55;383.23;;;12.10;69.40;;;11.55;100.00;101138.34;5009941;28;20428;-66
2021/11/08 07:54:49;;;;;;;455.25;409.50;;;12.40;69.00;;;11.79;100.00;101147.28;5010307;28;20416;-68
2021/11/08 07:57:17;;;;;;;454.38;408.88;;;12.60;68.40;;;12.07;100.00;101139.03;5010381;28;20429;-67
2021/11/08 07:59:45;;;;;;;473.35;427.38;;;12.90;68.10;;;12.24;100.00;101145.88;5010101;28;20420;-63
2021/11/08 08:02:14;;;;;;;486.42;440.20;;;13.10;67.10;;;12.23;100.00;101147.78;5009630;28;20412;-66
2021/11/08 08:04:43;;;;;;;478.80;432.77;;;13.10;66.30;;;12.11;100.00;101152.00;5010327;28;20416;-64
2021/11/08 08:07:12;;;;;;;476.60;430.65;;;12.90;66.80;;;11.96;100.00;101151.13;5010103;28;20427;-67
2021/11/08 08:09:40;;;;;;;461.02;415.33;;;12.70;67.70;;;11.80;100.00;101155.13;5009882;28;20424;-68
2021/11/08 08:12:10;;;;;;;452.85;407.15;;;12.60;68.10;;;11.78;100.00;101159.22;5009693;28;20424;-69
2021/11/08 08:14:38;;;;;;;452.80;407.25;;;12.50;68.60;;;11.75;100.00;101162.50;5009847;28;20894;-64
2021/11/08 08:17:06;;;;;;;444.63;399.13;;;12.50;68.80;;;11.78;100.00;101164.63;5010152;28;20439;-67
2021/11/08 08:19:35;;;;;;;439.00;393.83;;;12.50;68.80;;;11.77;100.00;101171.94;5009425;28;20423;-65
2021/11/08 08:22:04;;;;;;;440.57;395.20;;;12.60;69.00;;;11.79;100.00;101177.91;5009362;28;20484;-63
2021/11/08 08:24:33;;;;;;;438.35;392.95;;;12.60;68.70;;;11.81;100.00;101181.13;5010089;28;20424;-68
2021/11/08 08:27:04;;;;;;;432.02;386.83;;;12.60;68.60;;;11.85;100.00;101197.63;5009047;28;20428;-65
2021/11/08 08:29:32;;;;;;;439.08;393.88;;;12.70;69.40;;;11.94;100.00;101193.97;5009196;28;20479;-65
2021/11/08 08:32:01;;;;;;;451.45;405.92;;;12.80;68.60;;;12.03;100.00;101194.16;5008460;28;20418;-65
2021/11/08 08:34:30;;;;;;;452.50;406.90;;;12.90;68.40;;;12.12;100.00;101191.59;5009417;28;20441;-67
2021/11/08 08:36:59;;;;;;;450.65;405.30;;;13.00;68.00;;;12.27;100.00;101183.25;5008749;28;20425;-67
2021/11/08 08:40:33;;;;;;;457.53;411.83;;;13.10;67.70;;;12.41;100.00;101182.22;5009293;28;20519;-65
2021/11/08 08:43:08;;;;;;;464.38;418.75;;;13.20;67.50;;;12.57;100.00;101186.34;5005384;28;20420;-66
2021/11/08 08:45:38;;;;;;;468.65;423.25;;;13.40;67.90;;;12.71;100.00;101180.97;5009350;28;20423;-63
2021/11/08 08:48:07;;;;;;;493.60;447.60;;;13.50;67.80;;;12.89;100.00;101185.56;5009290;28;20827;-67
2021/11/08 08:50:37;;;;;;;499.63;453.50;;;13.70;67.80;;;13.09;100.00;101192.63;5008895;28;20429;-66
2021/11/08 08:53:05;;;;;;;503.77;457.50;;;13.80;67.60;;;13.31;100.00;101176.47;5008752;28;20808;-67
2021/11/08 08:55:34;;;;;;;519.25;472.77;;;14.10;67.10;;;13.47;100.00;101179.69;5009627;28;20479;-65
2021/11/08 08:58:25;;;;;;;531.50;484.77;;;14.20;66.90;;;13.57;100.00;101179.53;5009461;28;20563;-66
2021/11/08 09:00:56;;;;;;;533.72;487.20;;;14.20;65.70;;;13.76;100.00;101179.44;5004770;28;20435;-65
2021/11/08 09:03:25;;;;;;;554.20;507.20;;;14.40;64.80;;;13.84;100.00;101174.09;5008796;28;20838;-63
2021/11/08 09:05:55;;;;;;;579.22;531.53;;;14.50;64.30;;;13.96;100.00;101166.22;5009386;28;20413;-68
2021/11/08 09:08:23;;;;;;;571.50;524.10;;;14.60;63.50;;;14.11;100.00;101165.09;5009360;28;20416;-65
2021/11/08 09:10:52;;;;;;;585.38;537.83;;;14.80;63.00;;;14.20;100.00;101166.78;5008691;28;20587;-67
2021/11/08 09:13:22;;;;;;;599.58;551.78;;;14.90;63.50;;;14.41;100.00;101169.91;5008648;28;20427;-63
2021/11/08 09:15:50;;;;;;;600.05;552.25;;;15.10;62.70;;;14.39;100.00;101176.75;5008987;28;20423;-68
2021/11/08 09:18:19;;;;;;;612.00;564.03;;;15.10;61.70;;;14.41;100.00;101178.06;5009155;28;20487;-64
2021/11/08 09:20:56;;;;;;;615.03;567.13;;;15.00;61.40;;;14.33;100.00;101170.63;5009331;28;20424;-68
2021/11/08 09:23:38;;;;;;;613.33;565.43;;;14.90;61.50;;;14.36;100.00;101158.31;5007939;28;20420;-68
2021/11/08 09:26:31;;;;;;;622.33;574.22;;;15.00;62.30;;;14.55;100.00;101161.72;5011706;28;20416;-63
2021/11/08 09:29:01;;;;;;;630.13;581.72;;;15.20;62.40;;;14.70;100.00;101155.91;5012743;28;20420;-64
2021/11/08 09:31:30;;;;;;;644.60;596.00;;;15.30;61.50;;;14.89;99.19;101161.16;5012750;28;20494;-66
2021/11/08 09:34:03;;;;;;;652.85;604.05;;;15.50;60.90;;;14.96;94.72;101162.31;5012097;28;20424;-65
2021/11/08 09:36:33;;;;;;;640.85;592.42;;;15.50;60.10;;;15.11;92.07;101151.03;5012630;28;20404;-67
2021/11/08 09:39:01;;;;;;;663.40;614.58;;;15.70;59.50;;;15.14;89.24;101153.16;5012501;28;20513;-68
2021/11/08 09:41:35;;;;;;;675.70;626.53;;;15.70;59.20;;;15.19;88.96;101155.75;5012617;28;20420;-67
2021/11/08 09:44:07;;;;;;;672.88;624.05;;;15.70;59.00;;;15.30;84.36;101148.91;5012075;28;20408;-67
2021/11/08 09:46:37;;;;;;;671.55;622.75;;;15.80;58.30;;;15.41;82.22;101163.06;5012516;28;20471;-65
2021/11/08 09:49:08;;;;;;;693.70;644.45;;;15.80;57.80;;;15.26;79.71;101169.72;5012417;28;20562;-68
2021/11/08 09:51:40;;;;;;;682.67;633.40;;;15.60;57.80;;;15.26;82.51;101149.84;5012382;28;20440;-63
2021/11/08 09:54:10;;;;;;;688.45;639.30;;;15.60;58.50;;;15.36;83.24;101148.75;5011782;28;20420;-65
2021/11/08 09:56:39;;;;;;;681.90;632.73;;;15.80;58.40;;;15.48;86.14;101147.09;5012314;28;20431;-65
2021/11/08 09:59:09;;;;;;;689.22;639.90;;;16.00;59.20;;;15.78;82.45;101145.44;5012061;28;20424;-67
2021/11/08 10:01:56;;;;;;;700.03;650.53;;;16.30;58.20;;;15.88;79.50;101141.63;5009119;28;20424;-64
2021/11/08 10:04:24;;;;;;;709.05;659.45;;;16.30;57.60;;;15.83;79.33;101128.94;5000220;28;20440;-69
2021/11/08 10:06:53;;;;;;;718.13;668.33;;;16.30;57.60;;;15.95;78.50;101139.22;5001170;28;20485;-65
2021/11/08 10:09:22;;;;;;;721.10;671.33;;;16.40;57.50;;;15.99;76.85;101138.25;4999709;28;20423;-68
2021/11/08 10:11:51;;;;;;;723.53;673.63;;;16.40;57.10;;;15.98;77.78;101144.06;5001060;28;20509;-67
2021/11/08 10:14:22;;;;;;;725.78;675.92;;;16.40;57.60;;;16.06;77.28;101143.25;5001275;28;20432;-67
2021/11/08 10:16:58;;;;;;;729.63;679.63;;;16.50;57.20;;;16.17;75.60;101142.63;5000807;28;20861;-72
2021/11/08 10:19:27;;;;;;;723.17;673.17;;;16.50;57.00;;;16.11;77.55;101141.16;4999933;28;20441;-64
2021/11/08 10:21:57;;;;;;;733.50;683.30;;;16.60;57.60;;;16.34;74.62;101139.94;5001698;28;20437;-67
2021/11/08 10:24:31;;;;;;;738.07;687.77;;;16.70;56.50;;;16.37;75.13;101141.22;5000661;28;20727;-66
2021/11/08 10:27:03;;;;;;;746.30;695.83;;;16.80;56.90;;;16.45;75.65;101150.50;4999854;28;20869;-65
2021/11/08 10:29:47;;;;;;;752.60;701.95;;;16.90;57.00;;;16.72;77.08;101144.75;4999744;28;20425;-65
2021/11/08 10:32:20;;;;;;;749.85;699.45;;;17.30;57.20;;;16.87;72.38;101145.06;5001018;28;20993;-65
2021/11/08 10:34:57;;;;;;;762.92;712.13;;;17.40;55.80;;;16.91;71.90;101142.50;5000464;28;20802;-66
2021/11/08 10:37:39;;;;;;;760.88;710.42;;;17.50;55.90;;;17.03;70.27;101142.63;5001431;28;20421;-65
2021/11/08 10:40:21;;;;;;;766.67;715.80;;;17.60;55.20;;;17.17;68.89;101145.97;5001383;28;20420;-67
2021/11/08 10:42:57;;;;;;;772.83;721.78;;;17.70;55.40;;;17.22;69.92;101139.53;5000412;28;20426;-67
2021/11/08 10:45:27;;;;;;;774.20;722.90;;;17.80;55.20;;;17.30;68.54;101142.22;5002293;28;20427;-67
2021/11/08 10:48:01;;;;;;;780.73;729.53;;;17.90;54.50;;;17.51;68.69;101149.72;5002271;28;20475;-67
2021/11/08 10:50:41;;;;;;;776.28;724.90;;;18.10;54.40;;;17.69;69.86;101143.09;5001667;28;20422;-67
2021/11/08 10:53:09;;;;;;;793.08;741.38;;;18.30;55.20;;;17.94;67.32;101150.31;5001542;28;20430;-67
2021/11/08 10:55:38;;;;;;;794.15;742.55;;;18.50;54.00;;;17.87;67.55;101147.31;5001826;28;20451;-67
2021/11/08 10:58:10;;;;;;;789.83;738.42;;;18.50;54.10;;;18.02;68.00;101146.75;5001476;28;20434;-69
2021/11/08 11:00:53;;;;;;;796.43;744.63;;;18.70;54.40;;;18.17;68.38;101142.63;5001157;28;20522;-66
2021/11/08 11:04:17;;;;;;;801.58;749.88;;;18.80;54.60;;;18.38;68.73;101143.44;4998713;28;20414;-70
2021/11/08 11:06:49;;;;;;;813.20;761.08;;;19.00;54.60;;;18.50;65.25;101133.38;5000347;28;20427;-69
2021/11/08 11:09:24;;;;;;;811.72;759.67;;;19.20;53.40;;;18.52;63.52;101133.84;5000719;28;20416;-65
2021/11/08 11:12:10;;;;;;;820.00;767.80;;;19.20;52.80;;;18.70;63.32;101139.97;5000329;28;20430;-71
2021/11/08 11:14:41;;;;;;;829.22;776.72;;;19.30;52.60;;;18.77;61.87;101142.16;5009724;28;20432;-64
2021/11/08 11:17:15;;;;;;;825.20;772.88;;;19.40;52.00;;;18.88;58.60;101126.88;5010764;28;20412;-67
2021/11/08 11:19:44;;;;;;;832.85;780.30;;;19.60;51.00;;;18.91;59.18;101120.72;5010325;28;20428;-70
2021/11/08 11:22:19;;;;;;;837.83;785.03;;;19.60;51.20;;;19.03;59.70;101110.59;5009730;28;20974;-66
2021/11/08 11:24:50;;;;;;;844.65;791.72;;;19.70;51.60;;;19.15;58.18;101111.78;5010538;28;20521;-65
2021/11/08 11:27:35;;;;;;;848.42;795.55;;;19.80;50.80;;;19.26;57.40;101108.25;5010445;28;20467;-66